WetterOnline ( http://www.wetteronline.de )

Wetter aktuell Greifswald

Aktuelles Wetter: Greifswald (6m)

6-stündlich | Neueste Meldungen
Ortszeit Temperatur Wetter
So, 24.06. 20:00 16.8° C fast wolkenlos
So, 24.06. 14:00 16.9° C wolkig
So, 24.06. 8:00 14.0° C bewölkt
So, 24.06. 2:00 13.2° C wolkig
Sa, 23.06. 20:00 15.6° C wolkig
Sa, 23.06. 14:00 16.9° C bewölkt
Sa, 23.06. 8:00 12.7° C bewölkt
Sa, 23.06. 2:00 12.8° C bedeckt
Ortszeit Temperatur Wetter
So, 24.06. 20:10 16.6° C wolkenlos
So, 24.06. 20:00 16.8° C fast wolkenlos
So, 24.06. 19:50 16.8° C leicht bewölkt
So, 24.06. 19:40 17.1° C leicht bewölkt
So, 24.06. 19:30 17.5° C leicht bewölkt
So, 24.06. 19:20 17.5° C leicht bewölkt
So, 24.06. 19:00 17.4° C leicht bewölkt
So, 24.06. 18:30 18.2° C fast wolkenlos
So, 24.06. 18:00 18.1° C leicht bewölkt
So, 24.06. 17:30 17.4° C wolkig
So, 24.06. 17:00 16.9° C wolkig
Ortszeit Relative Feuchte Sichtweite
So, 24.06. 20:00 65% 50 km
So, 24.06. 14:00 66% 40 km
So, 24.06. 8:00 81% 45 km
So, 24.06. 2:00 85% 60 km
Sa, 23.06. 20:00 68% 50 km
Sa, 23.06. 14:00 53% 22 km
Sa, 23.06. 8:00 69% 21 km
Sa, 23.06. 2:00 73% 30 km
Ortszeit Relative Feuchte Sichtweite
So, 24.06. 20:10 66% -
So, 24.06. 20:00 65% 50 km
So, 24.06. 19:50 65% -
So, 24.06. 19:40 64% -
So, 24.06. 19:30 63% 45 km
So, 24.06. 19:20 63% -
So, 24.06. 19:00 62% 40 km
So, 24.06. 18:30 60% 40 km
So, 24.06. 18:00 62% 40 km
So, 24.06. 17:30 63% 60 km
So, 24.06. 17:00 65% 70 km
Ortszeit Niederschlagsmenge Niederschlagsart
So, 24.06. 20:00 0.1 l/m2 in 12 Std. Regen
So, 24.06. 14:00 0.1 l/m2 in 6 Std. Regen
So, 24.06. 8:00 0.0 l/m2 in 12 Std. -
So, 24.06. 2:00 0.0 l/m2 in 6 Std. -
Sa, 23.06. 20:00 0.0 l/m2 in 12 Std. -
Sa, 23.06. 14:00 0.0 l/m2 in 6 Std. -
Sa, 23.06. 8:00 0.1 l/m2 in 12 Std. Schauer
Sa, 23.06. 2:00 0.1 l/m2 in 6 Std. Schauer
Ortszeit Niederschlagsmenge Niederschlagsart
So, 24.06. 20:10 keine Meldung -
So, 24.06. 20:00 0.0 l/m2 in 1 Std. Regen
So, 24.06. 19:50 keine Meldung -
So, 24.06. 19:40 keine Meldung -
So, 24.06. 19:30 0.0 l/m2 in 1 Std. -
So, 24.06. 19:20 keine Meldung -
So, 24.06. 19:00 0.0 l/m2 in 1 Std. -
So, 24.06. 18:30 0.0 l/m2 in 1 Std. -
So, 24.06. 18:00 0.0 l/m2 in 1 Std. -
So, 24.06. 17:30 0.0 l/m2 in 1 Std. -
So, 24.06. 17:00 0.0 l/m2 in 1 Std. Regen
Ortszeit Stärke Spitze Richtung
km/h Bft. km/h Grad Sektor
So, 24.06. 20:00 14 3 25 290° W
So, 24.06. 14:00 13 3 30 310° NW
So, 24.06. 8:00 14 3 29 290° W
So, 24.06. 2:00 14 3 25 270° W
Sa, 23.06. 20:00 19 3 43 280° W
Sa, 23.06. 14:00 25 4 43 280° W
Sa, 23.06. 8:00 22 4 43 280° W
Sa, 23.06. 2:00 24 4 44 280° W
Ortszeit Stärke Spitze Richtung
km/h Bft. km/h Grad Sektor
So, 24.06. 20:10 13 3 - 290° W
So, 24.06. 20:00 14 3 22 290° W
So, 24.06. 19:50 14 3 - 290° W
So, 24.06. 19:40 14 3 - 280° W
So, 24.06. 19:30 11 2 18 300° NW
So, 24.06. 19:20 11 2 - 300° NW
So, 24.06. 19:00 14 3 22 290° W
So, 24.06. 18:30 11 2 22 290° W
So, 24.06. 18:00 15 3 22 290° W
So, 24.06. 17:30 11 2 18 300° NW
So, 24.06. 17:00 9 2 22 310° NW
Ortszeit Untergrenze Bedeckung Gattung
total tief tief mittel hoch
So, 24.06. 20:00 900 m 2/8 1/8 Cu Ac -
So, 24.06. 14:00 690 m 6/8 6/8 Cu - -
So, 24.06. 8:00 1290 m 7/8 7/8 Sc - -
So, 24.06. 2:00 1500 m 5/8 5/8 Sc - -
Sa, 23.06. 20:00 1200 m 6/8 6/8 Cu - -
Sa, 23.06. 14:00 1080 m 7/8 7/8 Sc - -
Sa, 23.06. 8:00 690 m 7/8 7/8 Sc - -
Sa, 23.06. 2:00 750 m 8/8 8/8 Cu - -
Ortszeit Bedeckungsgrad in Achtel und Wolkenuntergrenze
So, 24.06. 20:10 keine Wolken
So, 24.06. 20:00 1(900m)
So, 24.06. 19:50 2(840m) 2(1140m)
So, 24.06. 19:40 2(810m) 3(960m) 3(1140m)
So, 24.06. 19:30 2(900m) 5(960m) 6(1140m)
So, 24.06. 19:20 4(840m) 4(990m)
So, 24.06. 19:00 2(900m)
So, 24.06. 18:30 2(900m) 1(1020m)
So, 24.06. 18:00 4(840m) 3(1440m)
So, 24.06. 17:30 1(840m) 5(1500m) 7(1500m)
So, 24.06. 17:00 1(780m) 5(1500m)
Ortszeit Luftdruck NN (hPa) Tendenz (hPa in 3 Std.)
So, 24.06. 20:00 1017 - 0,1
So, 24.06. 14:00 1017 0,0
So, 24.06. 8:00 1017 0,0
So, 24.06. 2:00 1017 - 0,3
Sa, 23.06. 20:00 1017 - 0,1
Sa, 23.06. 14:00 1017 + 0,4
Sa, 23.06. 8:00 1016 + 0,5
Sa, 23.06. 2:00 1016 0,0
Ortszeit Luftdruck NN (hPa) Tendenz (hPa in 3 Std.)
So, 24.06. 20:10 1017 keine Meldung
So, 24.06. 20:00 1017 - 0,1
So, 24.06. 19:50 1017 keine Meldung
So, 24.06. 19:40 1017 keine Meldung
So, 24.06. 19:30 1017 - 0,2
So, 24.06. 19:20 1017 keine Meldung
So, 24.06. 19:00 1017 - 0,4
So, 24.06. 18:30 1017 - 0,3
So, 24.06. 18:00 1017 - 0,1
So, 24.06. 17:30 1017 - 0,5
So, 24.06. 17:00 1017 - 0,2
Ortszeit Schneehöhe (cm)
So, 24.06. 20:00 0
So, 24.06. 14:00 0
So, 24.06. 8:00 0
So, 24.06. 2:00 0
Sa, 23.06. 20:00 0
Sa, 23.06. 14:00 0
Sa, 23.06. 8:00 0
Sa, 23.06. 2:00 0
Ortszeit Schneehöhe (cm)
So, 24.06. 20:10 -
So, 24.06. 20:00 0
So, 24.06. 19:50 -
So, 24.06. 19:40 -
So, 24.06. 19:30 -
So, 24.06. 19:20 -
So, 24.06. 19:00 -
So, 24.06. 18:30 -
So, 24.06. 18:00 -
So, 24.06. 17:30 -
So, 24.06. 17:00 -
Link zu dieser Seite / Seite empfehlen

Das Wetter in ...